createdAt,value
2022-08-01T05:33:44.227Z,4.88
2022-08-01T05:36:10.876Z,4.95
2022-08-01T05:38:37.547Z,4.85
2022-08-01T05:41:04.291Z,4.85
2022-08-01T05:43:30.987Z,4.50
2022-08-01T05:45:57.833Z,4.43
2022-08-01T05:50:52.189Z,4.63
2022-08-01T05:53:20.735Z,4.47
2022-08-01T05:58:12.947Z,4.55
2022-08-01T06:00:40.184Z,4.82
2022-08-01T06:08:00.695Z,5.00
2022-08-01T06:10:27.480Z,4.68
2022-08-01T06:12:56.307Z,4.90
2022-08-01T06:15:23.143Z,4.30
2022-08-01T06:17:50.015Z,4.78
2022-08-01T06:20:16.656Z,4.10
2022-08-01T06:22:43.372Z,4.57
2022-08-01T06:25:12.628Z,4.57
2022-08-01T06:27:42.260Z,4.35
2022-08-01T06:30:11.798Z,3.75
2022-08-01T06:32:38.693Z,4.57
2022-08-01T06:39:57.501Z,4.15
2022-08-01T06:52:13.073Z,4.25
2022-08-01T06:54:39.922Z,4.40
2022-08-01T06:57:07.194Z,4.68
2022-08-01T06:59:36.560Z,4.20
2022-08-01T07:02:03.832Z,4.07
2022-08-01T07:11:47.579Z,3.65
2022-08-01T07:14:14.268Z,3.90
2022-08-01T07:16:43.856Z,3.83
2022-08-01T07:19:10.605Z,3.92
2022-08-01T07:21:39.217Z,3.55
2022-08-01T07:26:40.357Z,3.70
2022-08-01T07:31:45.024Z,3.67
2022-08-01T07:34:11.749Z,3.63
2022-08-01T07:41:54.647Z,3.75
2022-08-01T07:49:12.770Z,3.97
2022-08-01T07:56:42.549Z,3.22
2022-08-01T07:59:09.383Z,3.45
2022-08-01T08:01:36.394Z,3.38
2022-08-01T08:04:03.209Z,3.22
2022-08-01T08:06:32.596Z,3.13
2022-08-01T08:09:00.723Z,3.63
2022-08-01T08:13:53.025Z,3.15
2022-08-01T08:16:19.751Z,3.05
2022-08-01T08:21:11.993Z,3.15
2022-08-01T08:23:57.267Z,3.25
2022-08-01T08:26:26.374Z,3.28
2022-08-01T08:28:53.163Z,3.25
2022-08-01T08:31:50.943Z,3.30
2022-08-01T08:34:07.614Z,3.40
2022-08-01T08:39:04.624Z,3.30
2022-08-01T08:41:37.575Z,2.90
2022-08-01T08:46:33.708Z,2.80
2022-08-01T08:49:01.916Z,2.67
2022-08-01T08:51:31.081Z,2.75
2022-08-01T08:53:58.647Z,2.65
2022-08-01T08:56:26.321Z,2.53
2022-08-01T08:58:55.240Z,2.70
2022-08-01T09:01:22.777Z,2.70
2022-08-01T09:03:49.841Z,2.92
2022-08-01T09:13:33.029Z,3.20
2022-08-01T09:16:00.078Z,2.78
2022-08-01T09:18:33.070Z,3.20
2022-08-01T09:21:08.633Z,2.97
2022-08-01T09:26:10.192Z,2.92
2022-08-01T09:28:37.377Z,2.65
2022-08-01T09:33:57.073Z,2.47
2022-08-01T09:41:18.741Z,2.60
2022-08-01T09:43:50.272Z,2.58
2022-08-01T09:48:59.572Z,2.75
2022-08-01T09:51:58.999Z,2.88
2022-08-01T09:54:31.841Z,2.58
2022-08-01T09:59:57.213Z,2.75
2022-08-01T10:04:58.153Z,2.63
2022-08-01T10:07:27.795Z,2.75
2022-08-01T10:10:12.035Z,2.80
2022-08-01T10:12:38.904Z,2.88
2022-08-01T10:20:05.733Z,2.83
2022-08-01T10:22:48.735Z,2.22
2022-08-01T10:25:18.892Z,2.28
2022-08-01T10:30:37.827Z,2.28
2022-08-01T10:33:06.071Z,2.72
2022-08-01T10:40:30.411Z,2.25
2022-08-01T10:45:23.927Z,2.60
2022-08-01T10:47:51.258Z,2.30
2022-08-01T10:58:42.538Z,2.20
2022-08-01T11:01:16.148Z,2.58
2022-08-01T11:03:56.540Z,2.80
2022-08-01T11:06:29.381Z,2.60
2022-08-01T11:08:58.785Z,2.35
2022-08-01T11:11:27.692Z,2.65
2022-08-01T11:16:28.681Z,2.40
2022-08-01T11:18:55.730Z,2.60
2022-08-01T11:21:56.897Z,2.20
2022-08-01T11:24:11.734Z,2.50
2022-08-01T11:36:57.618Z,2.00
2022-08-01T11:39:16.861Z,2.60
2022-08-01T11:41:44.816Z,2.28
2022-08-01T11:44:12.197Z,2.70
2022-08-01T11:49:35.303Z,2.53
2022-08-01T12:00:13.598Z,2.45
2022-08-01T12:02:42.874Z,2.50
2022-08-01T12:12:39.278Z,2.40
2022-08-01T12:15:07.473Z,2.47
2022-08-01T12:20:12.665Z,2.70
2022-08-01T12:22:39.457Z,2.30
2022-08-01T12:25:12.785Z,2.10
2022-08-01T12:27:40.531Z,2.20
2022-08-01T12:30:12.845Z,2.00
2022-08-01T12:35:12.353Z,2.50
2022-08-01T12:37:42.438Z,2.30
2022-08-01T12:40:16.504Z,2.20
2022-08-01T12:42:43.956Z,2.28
2022-08-01T12:45:11.958Z,2.10
2022-08-01T12:47:39.625Z,2.20
2022-08-01T12:55:20.061Z,2.30
2022-08-01T12:57:55.470Z,2.45
2022-08-01T13:05:18.908Z,2.45
2022-08-01T13:07:47.389Z,2.50
2022-08-01T13:10:14.873Z,2.00
2022-08-01T13:15:45.780Z,2.20
2022-08-01T13:18:26.940Z,2.50
2022-08-01T13:31:02.590Z,2.30
2022-08-01T13:33:40.879Z,2.30
2022-08-01T13:41:16.952Z,2.13
2022-08-01T13:43:58.356Z,2.47
2022-08-01T13:51:22.175Z,2.33
2022-08-01T13:53:49.823Z,2.17
2022-08-01T13:58:45.452Z,2.03
2022-08-01T14:01:12.201Z,1.98
2022-08-01T14:08:30.327Z,1.80
2022-08-01T14:11:00.905Z,1.85
2022-08-01T14:13:32.101Z,2.05
2022-08-01T14:23:19.682Z,2.10
2022-08-01T14:26:03.046Z,1.80
2022-08-01T14:28:32.493Z,2.03
2022-08-01T14:30:59.456Z,1.80
2022-08-01T14:33:26.265Z,2.10
2022-08-01T14:43:19.057Z,1.80
2022-08-01T14:45:55.489Z,2.08
2022-08-01T14:48:22.202Z,2.13
2022-08-01T14:50:49.363Z,2.10
2022-08-01T14:53:16.156Z,1.90
2022-08-01T14:55:42.859Z,2.15
2022-08-01T14:58:09.501Z,1.83
2022-08-01T15:03:01.821Z,1.90
2022-08-01T15:05:29.952Z,1.98
2022-08-01T15:07:58.506Z,1.98
2022-08-01T15:10:25.775Z,2.03
2022-08-01T15:12:52.503Z,1.80
2022-08-01T15:17:46.171Z,1.92
2022-08-01T15:20:12.991Z,1.63
2022-08-01T15:22:40.059Z,1.90
2022-08-01T15:25:06.893Z,1.83
2022-08-01T15:27:33.596Z,2.20
2022-08-01T15:30:23.707Z,2.00
2022-08-01T15:32:54.282Z,1.83
2022-08-01T15:37:46.504Z,1.90
2022-08-01T15:40:13.296Z,1.85
2022-08-01T15:42:40.145Z,1.77
2022-08-01T15:45:10.631Z,2.28
2022-08-01T15:47:40.145Z,2.28
2022-08-01T15:50:08.100Z,2.15
2022-08-01T15:52:35.110Z,1.90
2022-08-01T15:55:01.907Z,2.20
2022-08-01T15:57:28.669Z,2.20
2022-08-01T15:59:55.441Z,1.77
2022-08-01T16:02:22.205Z,2.10
2022-08-01T16:04:48.986Z,1.70
2022-08-01T16:07:15.715Z,1.40
2022-08-01T16:09:42.465Z,1.80
2022-08-01T16:12:10.311Z,1.80
2022-08-01T16:14:37.135Z,1.60
2022-08-01T16:17:03.777Z,1.58
2022-08-01T16:19:30.598Z,1.70
2022-08-01T16:21:57.364Z,1.80
2022-08-01T16:24:24.138Z,1.67
2022-08-01T16:29:16.248Z,1.73
2022-08-01T16:31:51.122Z,1.80
2022-08-01T16:39:23.648Z,1.80
2022-08-01T16:44:19.192Z,1.85
2022-08-01T16:51:51.941Z,1.55
2022-08-01T16:54:25.107Z,1.40
2022-08-01T16:56:53.297Z,1.25
2022-08-01T17:01:58.375Z,1.30
2022-08-01T17:09:19.625Z,1.60
2022-08-01T17:11:46.429Z,2.00
2022-08-01T17:14:13.113Z,1.48
2022-08-01T17:16:39.743Z,1.20
2022-08-01T17:19:06.515Z,1.42
2022-08-01T17:21:33.725Z,1.38
2022-08-01T17:24:00.409Z,1.30
2022-08-01T17:28:52.743Z,1.23
2022-08-01T17:31:19.618Z,1.45
2022-08-01T17:33:48.640Z,1.20
2022-08-01T17:36:21.333Z,1.58
2022-08-01T17:38:48.114Z,1.27
2022-08-01T17:41:14.906Z,1.42
2022-08-01T17:43:41.709Z,1.30
2022-08-01T17:46:08.509Z,1.50
2022-08-01T17:48:35.464Z,1.38
2022-08-01T17:51:02.227Z,1.70
2022-08-01T17:53:30.292Z,1.30
2022-08-01T17:55:58.883Z,1.58
2022-08-01T17:58:49.599Z,1.60
2022-08-01T18:01:13.246Z,1.33
2022-08-01T18:03:41.261Z,1.40
2022-08-01T18:06:09.269Z,1.30
2022-08-01T18:08:35.975Z,1.45
2022-08-01T18:11:02.703Z,1.67
2022-08-01T18:13:29.924Z,1.33
2022-08-01T18:15:57.053Z,1.55
2022-08-01T18:20:51.632Z,1.30
2022-08-01T18:23:18.520Z,1.85
2022-08-01T18:28:19.633Z,1.42
2022-08-01T18:35:52.465Z,1.67
2022-08-01T18:53:00.955Z,1.67
2022-08-01T19:00:20.919Z,1.80
2022-08-01T19:05:13.511Z,1.58
2022-08-01T19:08:05.490Z,1.50
2022-08-01T19:20:17.536Z,1.73
2022-08-01T19:42:46.569Z,1.60
2022-08-01T19:45:13.549Z,1.48
2022-08-01T19:47:50.886Z,2.00
2022-08-01T19:50:30.221Z,2.10
2022-08-01T19:53:02.205Z,2.10
2022-08-01T20:00:24.060Z,2.22
2022-08-01T20:05:27.631Z,2.58
2022-08-01T20:07:54.658Z,2.10
2022-08-01T20:15:16.716Z,2.67
2022-08-01T20:17:46.610Z,2.65
2022-08-01T20:20:16.601Z,2.72
2022-08-01T20:22:44.106Z,2.50
2022-08-01T20:27:38.312Z,2.40
2022-08-01T20:30:05.416Z,2.33
2022-08-01T20:44:45.509Z,2.50
2022-08-01T20:49:38.436Z,2.55
2022-08-01T20:52:11.281Z,2.50
2022-08-01T20:54:39.079Z,2.90
2022-08-01T20:57:09.480Z,2.63
2022-08-01T20:59:57.271Z,2.83
2022-08-01T21:02:33.577Z,2.88
2022-08-01T21:20:11.388Z,2.70
2022-08-01T21:22:44.496Z,3.03
2022-08-01T21:25:13.310Z,4.45
2022-08-01T21:27:40.592Z,3.53
2022-08-01T21:32:34.979Z,3.33
2022-08-01T21:35:02.584Z,5.65
2022-08-01T21:44:49.512Z,3.85
2022-08-01T21:47:20.840Z,2.70
2022-08-01T21:49:47.464Z,3.03
2022-08-01T21:52:16.365Z,2.80
2022-08-01T21:54:46.966Z,2.92
2022-08-01T22:14:42.093Z,2.70
2022-08-01T22:17:10.789Z,2.92
2022-08-01T22:19:45.045Z,3.13
2022-08-01T22:22:42.384Z,3.10
2022-08-01T22:25:01.178Z,3.15
2022-08-01T22:28:05.725Z,2.72
2022-08-01T22:30:15.495Z,3.00
2022-08-01T22:32:43.421Z,2.75
2022-08-01T22:35:12.134Z,2.60
2022-08-01T22:37:57.094Z,2.95
2022-08-01T22:40:24.210Z,3.17
2022-08-01T22:42:59.791Z,2.55
2022-08-01T22:50:36.480Z,3.05
2022-08-01T22:53:22.067Z,2.70
2022-08-01T22:55:58.071Z,2.95
2022-08-01T23:00:55.966Z,2.90
2022-08-01T23:03:25.745Z,2.72
2022-08-01T23:06:04.794Z,2.92
2022-08-01T23:08:32.495Z,3.05
2022-08-01T23:11:03.619Z,3.28
2022-08-01T23:15:59.451Z,2.47
2022-08-01T23:18:27.352Z,2.88
2022-08-01T23:23:31.200Z,2.70
2022-08-01T23:25:59.211Z,2.95
2022-08-01T23:28:26.540Z,3.10
2022-08-01T23:30:54.006Z,2.92
2022-08-01T23:33:20.742Z,3.15
2022-08-01T23:43:14.694Z,2.97
2022-08-01T23:46:04.510Z,3.28
2022-08-01T23:50:57.621Z,2.90
2022-08-01T23:53:24.391Z,3.13
2022-08-01T23:55:57.870Z,3.20
2022-08-01T23:58:24.720Z,2.80
